Time;durP1;ratioP1;P1;durP2;ratioP2;P2;SDS_P1;SDS_P2;PMS_P1;PMS_P2;Temp;Humidity;BMP_temperature;BMP_pressure;BME280_temperature;BME280_humidity;BME280_pressure;Samples;Min_cycle;Max_cycle;Signal;HPM_P1;HPM_P2
2021/08/06 00:01:35;;;;;;;3.37;2.47;;;22.40;67.80;;;;;;5073746;28;20425;-75
2021/08/06 00:04:02;;;;;;;3.40;2.13;;;22.40;67.90;;;;;;5074310;28;20819;-75
2021/08/06 00:06:29;;;;;;;3.63;2.53;;;22.30;67.90;;;;;;5074563;28;20813;-75
2021/08/06 00:08:57;;;;;;;3.50;2.23;;;22.30;68.40;;;;;;5074514;28;20448;-75
2021/08/06 00:11:27;;;;;;;3.23;2.67;;;22.30;68.70;;;;;;5074395;28;20480;-75
2021/08/06 00:13:54;;;;;;;3.30;2.27;;;22.20;69.30;;;;;;5074063;28;20460;-75
2021/08/06 00:16:22;;;;;;;3.20;2.70;;;22.20;68.90;;;;;;5074381;28;20441;-75
2021/08/06 00:18:49;;;;;;;2.40;2.20;;;22.20;69.00;;;;;;5074341;28;20480;-75
2021/08/06 00:21:17;;;;;;;3.20;2.97;;;22.10;69.10;;;;;;5074294;28;20463;-75
2021/08/06 00:23:43;;;;;;;2.73;2.40;;;22.10;69.40;;;;;;5074232;28;20449;-75
2021/08/06 00:26:12;;;;;;;2.60;2.37;;;22.10;69.40;;;;;;5074276;28;20448;-75
2021/08/06 00:28:39;;;;;;;3.13;2.73;;;22.00;69.30;;;;;;5074222;28;20444;-75
2021/08/06 00:31:05;;;;;;;3.93;2.70;;;22.00;69.30;;;;;;5073801;28;20851;-75
2021/08/06 00:33:32;;;;;;;3.80;2.50;;;21.90;69.10;;;;;;5074162;28;20857;-75
2021/08/06 00:35:59;;;;;;;4.73;2.40;;;21.80;69.70;;;;;;5074056;28;20522;-75
2021/08/06 00:38:25;;;;;;;3.53;2.37;;;21.80;70.20;;;;;;5074056;28;20451;-75
2021/08/06 00:40:52;;;;;;;4.43;2.57;;;21.80;70.60;;;;;;5074313;28;20471;-75
2021/08/06 00:43:20;;;;;;;2.07;1.90;;;21.70;70.80;;;;;;5073971;28;20792;-75
2021/08/06 00:45:47;;;;;;;4.60;2.43;;;21.70;71.80;;;;;;5073823;28;20521;-75
2021/08/06 00:48:14;;;;;;;3.50;2.97;;;21.60;71.00;;;;;;5073556;28;20447;-75
2021/08/06 00:50:41;;;;;;;5.30;2.00;;;21.60;71.50;;;;;;5073455;28;21000;-75
2021/08/06 00:53:08;;;;;;;4.50;2.30;;;21.50;71.60;;;;;;5073882;28;20445;-75
2021/08/06 00:55:35;;;;;;;4.60;2.70;;;21.50;72.00;;;;;;5073322;28;20974;-75
2021/08/06 00:58:02;;;;;;;2.50;2.30;;;21.50;72.20;;;;;;5073396;28;20464;-75
2021/08/06 01:00:30;;;;;;;2.33;2.20;;;21.50;73.00;;;;;;5073703;28;20441;-75
2021/08/06 01:03:04;;;;;;;3.83;2.40;;;21.50;73.60;;;;;;5073651;28;20444;-75
2021/08/06 01:05:34;;;;;;;3.43;2.37;;;21.50;73.50;;;;;;5073852;28;20464;-75
2021/08/06 01:08:07;;;;;;;3.80;2.90;;;21.50;73.50;;;;;;5073283;28;20961;-75
2021/08/06 01:10:41;;;;;;;3.80;2.93;;;21.50;73.50;;;;;;5073789;28;20460;-75
2021/08/06 01:13:10;;;;;;;2.60;2.30;;;21.50;73.70;;;;;;5073359;28;20466;-75
2021/08/06 01:15:38;;;;;;;3.80;2.40;;;21.60;73.90;;;;;;5073464;28;20461;-75
2021/08/06 01:18:07;;;;;;;2.70;2.50;;;21.60;73.50;;;;;;5073081;28;20939;-75
2021/08/06 01:20:37;;;;;;;2.83;2.60;;;21.50;73.90;;;;;;5073480;28;20440;-75
2021/08/06 01:23:09;;;;;;;3.00;2.60;;;21.50;73.90;;;;;;5073136;28;20460;-75
2021/08/06 01:25:46;;;;;;;3.83;2.33;;;21.50;73.90;;;;;;5073367;28;20465;-74
2021/08/06 01:28:14;;;;;;;3.13;2.43;;;21.50;74.00;;;;;;5073124;28;20463;-74
2021/08/06 01:30:41;;;;;;;2.70;2.50;;;21.50;74.40;;;;;;5073316;28;20484;-74
2021/08/06 01:33:08;;;;;;;3.03;2.37;;;21.40;74.20;;;;;;5073592;28;20440;-74
2021/08/06 01:35:35;;;;;;;2.33;2.13;;;21.40;74.40;;;;;;5073506;28;20468;-74
2021/08/06 01:38:02;;;;;;;2.80;2.60;;;21.40;74.10;;;;;;5073306;28;20822;-74
2021/08/06 01:40:31;;;;;;;2.30;2.10;;;21.40;74.30;;;;;;5072973;28;20930;-74
2021/08/06 01:43:09;;;;;;;2.40;2.30;;;21.40;74.50;;;;;;5072950;28;20452;-74
2021/08/06 01:45:41;;;;;;;2.30;2.10;;;21.40;74.50;;;;;;5073171;28;20467;-75
2021/08/06 01:48:12;;;;;;;2.80;2.60;;;21.40;74.90;;;;;;5073234;28;20432;-75
2021/08/06 01:50:41;;;;;;;3.13;2.40;;;21.30;75.10;;;;;;5073139;28;20483;-75
2021/08/06 01:53:11;;;;;;;5.17;2.90;;;21.30;75.10;;;;;;5073160;28;20451;-75
2021/08/06 01:55:42;;;;;;;2.50;2.30;;;21.30;74.90;;;;;;5073090;28;20464;-75
2021/08/06 01:58:12;;;;;;;3.57;2.70;;;21.20;74.90;;;;;;5073205;28;20425;-75
2021/08/06 02:00:40;;;;;;;2.90;2.50;;;21.20;75.30;;;;;;5073114;28;20425;-75
2021/08/06 02:03:07;;;;;;;5.03;2.77;;;21.20;75.20;;;;;;5073062;28;20452;-75
2021/08/06 02:05:35;;;;;;;2.97;2.27;;;21.20;75.20;;;;;;5072598;28;20989;-75
2021/08/06 02:08:02;;;;;;;3.73;2.37;;;21.20;75.30;;;;;;5072973;28;20471;-75
2021/08/06 02:10:30;;;;;;;2.43;2.23;;;21.20;75.10;;;;;;5072924;28;20483;-75
2021/08/06 02:12:57;;;;;;;2.43;2.23;;;21.20;76.00;;;;;;5072987;28;20452;-75
2021/08/06 02:15:25;;;;;;;2.83;2.33;;;21.20;75.20;;;;;;5072565;28;20993;-75
2021/08/06 02:17:52;;;;;;;3.20;2.37;;;21.20;75.50;;;;;;5072931;28;20448;-73
2021/08/06 02:20:21;;;;;;;5.67;2.50;;;21.10;75.80;;;;;;5072895;28;20487;-72
2021/08/06 02:22:49;;;;;;;4.40;2.73;;;21.10;76.40;;;;;;5072809;28;20464;-71
2021/08/06 02:25:20;;;;;;;3.60;2.60;;;21.00;77.20;;;;;;5075931;28;20460;-71
2021/08/06 02:27:47;;;;;;;2.50;2.30;;;21.00;78.50;;;;;;5076816;28;20432;-72
2021/08/06 02:30:16;;;;;;;4.20;2.70;;;20.90;79.30;;;;;;5076417;28;20830;-72
2021/08/06 02:32:45;;;;;;;3.07;2.70;;;20.90;79.80;;;;;;5076395;28;20467;-72
2021/08/06 02:35:13;;;;;;;4.43;2.30;;;20.80;80.10;;;;;;5075999;28;20595;-72
2021/08/06 02:37:44;;;;;;;4.40;2.70;;;20.80;80.70;;;;;;5076337;28;20817;-73
2021/08/06 02:40:11;;;;;;;3.57;2.30;;;20.90;81.10;;;;;;5076001;28;20925;-73
2021/08/06 02:42:38;;;;;;;9.30;3.10;;;20.90;81.00;;;;;;5076482;28;20444;-73
2021/08/06 02:45:06;;;;;;;3.33;3.03;;;20.90;81.40;;;;;;5076149;28;20601;-73
2021/08/06 02:47:33;;;;;;;4.80;3.30;;;20.80;81.50;;;;;;5076150;28;20444;-73
2021/08/06 02:50:01;;;;;;;3.50;2.10;;;20.80;81.60;;;;;;5075759;28;20816;-73
2021/08/06 02:52:28;;;;;;;2.53;2.33;;;20.70;82.00;;;;;;5075646;28;20821;-73
2021/08/06 02:54:55;;;;;;;3.33;3.03;;;20.70;82.10;;;;;;5076204;28;20464;-73
2021/08/06 02:57:21;;;;;;;2.80;2.47;;;20.70;82.10;;;;;;5075951;28;20467;-73
2021/08/06 02:59:48;;;;;;;4.20;3.00;;;20.70;82.10;;;;;;5075625;28;20984;-73
2021/08/06 03:02:15;;;;;;;3.30;2.50;;;20.80;82.60;;;;;;5076097;28;20437;-73
2021/08/06 03:04:41;;;;;;;2.90;2.60;;;20.80;82.40;;;;;;5075473;28;20995;-74
2021/08/06 03:07:10;;;;;;;3.00;2.43;;;20.80;82.10;;;;;;5075792;28;20451;-74
2021/08/06 03:09:36;;;;;;;2.60;2.40;;;20.80;81.90;;;;;;5075423;28;20440;-74
2021/08/06 03:12:03;;;;;;;5.43;2.63;;;20.80;82.10;;;;;;5075586;28;20477;-74
2021/08/06 03:14:30;;;;;;;3.60;2.80;;;20.80;82.70;;;;;;5075598;28;20465;-74
2021/08/06 03:16:57;;;;;;;2.63;2.43;;;20.90;81.80;;;;;;5075311;28;20447;-74
2021/08/06 03:19:23;;;;;;;3.57;2.80;;;20.80;81.80;;;;;;5075517;28;20480;-74
2021/08/06 03:21:50;;;;;;;3.13;2.63;;;20.80;81.90;;;;;;5075355;28;20448;-74
2021/08/06 03:24:18;;;;;;;3.27;2.20;;;20.80;81.60;;;;;;5075421;28;20479;-74
2021/08/06 03:26:45;;;;;;;2.93;2.73;;;20.90;81.80;;;;;;5075408;28;20441;-74
2021/08/06 03:29:11;;;;;;;2.60;2.40;;;20.90;81.50;;;;;;5075368;28;20452;-74
2021/08/06 03:31:38;;;;;;;3.37;2.40;;;20.90;81.30;;;;;;5075228;28;20472;-74
2021/08/06 03:34:05;;;;;;;2.67;2.47;;;20.90;81.60;;;;;;5075187;28;20460;-74
2021/08/06 03:36:32;;;;;;;4.30;2.80;;;20.90;81.30;;;;;;5075123;28;20448;-74
2021/08/06 03:38:58;;;;;;;5.70;2.70;;;21.00;81.40;;;;;;5075166;28;20445;-74
2021/08/06 03:41:27;;;;;;;3.20;2.90;;;21.00;81.20;;;;;;5074820;28;20931;-74
2021/08/06 03:43:53;;;;;;;3.03;2.63;;;20.90;80.90;;;;;;5074992;28;20452;-74
2021/08/06 03:46:20;;;;;;;2.60;2.40;;;20.90;80.90;;;;;;5074991;28;20449;-74
2021/08/06 03:48:47;;;;;;;4.67;1.97;;;20.90;81.20;;;;;;5074962;28;20449;-74
2021/08/06 03:51:14;;;;;;;4.43;2.50;;;20.90;81.20;;;;;;5074822;28;20479;-74
2021/08/06 03:53:41;;;;;;;2.70;2.50;;;20.90;81.20;;;;;;5074955;28;20808;-74
2021/08/06 03:56:08;;;;;;;2.80;2.53;;;20.90;81.10;;;;;;5074804;28;20468;-74
2021/08/06 03:58:36;;;;;;;3.60;2.67;;;20.90;81.00;;;;;;5074827;28;20456;-74
2021/08/06 04:01:02;;;;;;;2.90;2.30;;;20.90;81.00;;;;;;5074496;28;20448;-74
2021/08/06 04:03:29;;;;;;;3.20;2.50;;;20.80;80.50;;;;;;5074730;28;20452;-74
2021/08/06 04:05:56;;;;;;;3.00;2.60;;;20.90;81.00;;;;;;5074592;28;20873;-74
2021/08/06 04:08:22;;;;;;;2.80;2.40;;;20.80;81.20;;;;;;5074614;28;20444;-74
2021/08/06 04:10:49;;;;;;;3.80;2.60;;;20.80;81.20;;;;;;5074524;28;20448;-74
2021/08/06 04:13:16;;;;;;;2.40;2.20;;;20.80;81.40;;;;;;5074574;28;20445;-73
2021/08/06 04:15:44;;;;;;;2.97;2.77;;;20.80;81.60;;;;;;5074453;28;20471;-74
2021/08/06 04:18:10;;;;;;;6.60;2.90;;;20.80;81.70;;;;;;5074425;28;20800;-74
2021/08/06 04:20:37;;;;;;;7.20;2.67;;;20.80;81.90;;;;;;5074344;28;20451;-72
2021/08/06 04:23:04;;;;;;;5.13;2.27;;;20.80;82.00;;;;;;5073986;28;20452;-72
2021/08/06 04:25:31;;;;;;;6.10;2.50;;;20.80;81.70;;;;;;5074220;28;20465;-72
2021/08/06 04:27:57;;;;;;;5.07;2.43;;;20.70;82.10;;;;;;5074234;28;20451;-72
2021/08/06 04:30:24;;;;;;;4.20;2.43;;;20.70;82.40;;;;;;5074135;28;20821;-72
2021/08/06 04:32:52;;;;;;;3.97;3.10;;;20.70;82.50;;;;;;5074053;28;20481;-74
2021/08/06 04:35:20;;;;;;;2.33;2.13;;;20.70;82.40;;;;;;5074005;28;20464;-74
2021/08/06 04:37:51;;;;;;;2.63;2.40;;;20.70;82.50;;;;;;5073992;28;20444;-74
2021/08/06 04:40:18;;;;;;;1.80;1.67;;;20.70;82.50;;;;;;5074082;28;20440;-74
2021/08/06 04:42:46;;;;;;;2.60;2.40;;;20.70;82.80;;;;;;5073959;28;20452;-74
2021/08/06 04:45:13;;;;;;;5.63;2.67;;;20.60;82.80;;;;;;5073557;28;20967;-74
2021/08/06 04:47:44;;;;;;;2.60;2.40;;;20.60;82.70;;;;;;5073421;28;20476;-74
2021/08/06 04:50:13;;;;;;;2.93;2.73;;;20.60;82.90;;;;;;5073584;28;20805;-74
2021/08/06 04:52:40;;;;;;;2.20;2.03;;;20.60;83.20;;;;;;5073735;28;20481;-74
2021/08/06 04:55:07;;;;;;;5.33;2.57;;;20.60;83.30;;;;;;5073703;28;20465;-74
2021/08/06 04:57:34;;;;;;;4.30;2.80;;;20.70;83.40;;;;;;5073777;28;20444;-74
2021/08/06 05:00:01;;;;;;;2.40;2.20;;;20.70;83.40;;;;;;5073723;28;20447;-74
2021/08/06 05:02:27;;;;;;;3.87;2.57;;;20.60;83.10;;;;;;5073381;28;20445;-74
2021/08/06 05:04:54;;;;;;;3.47;2.53;;;20.60;83.20;;;;;;5073605;28;20637;-74
2021/08/06 05:07:22;;;;;;;3.00;2.10;;;20.60;83.20;;;;;;5073617;28;20445;-74
2021/08/06 05:09:49;;;;;;;2.87;2.60;;;20.60;82.80;;;;;;5073582;28;20436;-74
2021/08/06 05:12:16;;;;;;;3.00;2.30;;;20.60;82.90;;;;;;5073534;28;20483;-74
2021/08/06 05:14:42;;;;;;;4.10;2.17;;;20.60;82.90;;;;;;5073498;28;20471;-74
2021/08/06 05:17:09;;;;;;;2.40;2.20;;;20.50;82.20;;;;;;5073570;28;20441;-74
2021/08/06 05:19:36;;;;;;;3.30;2.60;;;20.50;82.80;;;;;;5073513;28;20453;-74
2021/08/06 05:22:03;;;;;;;3.70;2.30;;;20.50;83.40;;;;;;5073264;28;20479;-75
2021/08/06 05:24:31;;;;;;;2.50;2.30;;;20.40;83.60;;;;;;5073388;28;20456;-75
2021/08/06 05:26:58;;;;;;;3.10;2.50;;;20.40;83.60;;;;;;5073678;28;20444;-74
2021/08/06 05:29:25;;;;;;;2.63;2.43;;;20.40;83.90;;;;;;5073355;28;20449;-74
2021/08/06 05:31:52;;;;;;;2.93;2.50;;;20.30;84.20;;;;;;5073625;28;20472;-74
2021/08/06 05:34:19;;;;;;;2.43;2.23;;;20.30;84.70;;;;;;5073424;28;20461;-74
2021/08/06 05:36:46;;;;;;;3.67;2.33;;;20.30;85.00;;;;;;5073347;28;20448;-74
2021/08/06 05:39:12;;;;;;;3.30;2.57;;;20.30;85.00;;;;;;5073303;28;20440;-73
2021/08/06 05:41:40;;;;;;;3.10;2.80;;;20.30;85.40;;;;;;5073276;28;20811;-73
2021/08/06 05:44:07;;;;;;;3.80;2.23;;;20.30;85.60;;;;;;5073174;28;20455;-73
2021/08/06 05:46:35;;;;;;;2.63;2.17;;;20.20;85.80;;;;;;5072891;28;20820;-73
2021/08/06 05:49:02;;;;;;;3.73;2.70;;;20.20;86.30;;;;;;5073258;28;20449;-73
2021/08/06 05:51:28;;;;;;;4.30;2.23;;;20.20;86.60;;;;;;5073111;28;20476;-73
2021/08/06 05:53:55;;;;;;;4.07;2.80;;;20.20;86.40;;;;;;5073106;28;20453;-73
2021/08/06 05:56:22;;;;;;;2.30;2.10;;;20.30;86.90;;;;;;5072801;28;20797;-71
2021/08/06 05:58:50;;;;;;;3.30;2.43;;;20.30;86.90;;;;;;5074207;28;20467;-71
2021/08/06 06:01:16;;;;;;;2.73;2.30;;;20.30;87.10;;;;;;5077025;28;20448;-71
2021/08/06 06:03:43;;;;;;;3.83;2.90;;;20.40;87.10;;;;;;5077327;28;20440;-71
2021/08/06 06:06:10;;;;;;;3.50;2.23;;;20.50;87.20;;;;;;5078344;28;20468;-72
2021/08/06 06:08:37;;;;;;;3.77;2.20;;;20.70;86.50;;;;;;5076627;28;20451;-72
2021/08/06 06:11:04;;;;;;;2.90;1.93;;;20.70;86.00;;;;;;5076838;28;20819;-74
2021/08/06 06:13:31;;;;;;;6.50;2.00;;;20.80;85.80;;;;;;5076796;28;20480;-74
2021/08/06 06:15:59;;;;;;;5.80;2.00;;;20.80;85.10;;;;;;5076741;28;20472;-74
2021/08/06 06:18:26;;;;;;;4.40;2.97;;;20.80;85.70;;;;;;5076421;28;20440;-74
2021/08/06 06:20:53;;;;;;;2.00;1.90;;;20.70;85.90;;;;;;5076665;28;20445;-74
2021/08/06 06:23:20;;;;;;;2.30;2.03;;;20.70;86.30;;;;;;5076301;28;20455;-74
2021/08/06 06:25:47;;;;;;;2.80;2.07;;;20.70;86.20;;;;;;5076168;28;20456;-74
2021/08/06 06:28:14;;;;;;;2.90;2.33;;;20.70;86.40;;;;;;5076581;28;20854;-74
2021/08/06 06:30:40;;;;;;;4.60;2.67;;;20.80;86.50;;;;;;5076782;28;20448;-74
2021/08/06 06:33:09;;;;;;;5.13;2.13;;;20.80;86.20;;;;;;5076372;28;20476;-74
2021/08/06 06:35:36;;;;;;;2.17;2.00;;;20.80;86.00;;;;;;5076585;28;20464;-74
2021/08/06 06:38:03;;;;;;;3.47;2.60;;;20.80;86.20;;;;;;5076394;28;20451;-74
2021/08/06 06:40:30;;;;;;;3.63;2.10;;;20.80;86.40;;;;;;5076338;28;20444;-75
2021/08/06 06:42:57;;;;;;;2.93;2.20;;;20.90;86.10;;;;;;5076543;28;20439;-74
2021/08/06 06:45:25;;;;;;;6.40;2.40;;;20.90;86.20;;;;;;5076265;28;20472;-74
2021/08/06 06:47:53;;;;;;;3.17;2.20;;;20.90;86.20;;;;;;5076490;28;20445;-75
2021/08/06 06:50:23;;;;;;;3.97;2.30;;;20.90;86.40;;;;;;5076159;28;20436;-75
2021/08/06 06:52:50;;;;;;;3.40;2.03;;;20.80;85.90;;;;;;5076054;28;20483;-75
2021/08/06 06:55:17;;;;;;;2.60;2.33;;;20.80;86.20;;;;;;5075983;28;20472;-75
2021/08/06 06:57:45;;;;;;;1.87;1.70;;;20.90;87.40;;;;;;5076095;28;20444;-75
2021/08/06 07:00:13;;;;;;;1.50;1.30;;;20.90;86.00;;;;;;5076097;28;20817;-75
2021/08/06 07:02:40;;;;;;;4.10;2.23;;;20.90;85.30;;;;;;5076090;28;20444;-74
2021/08/06 07:05:08;;;;;;;2.73;1.30;;;21.00;85.20;;;;;;5076016;28;20464;-73
2021/08/06 07:07:36;;;;;;;3.77;1.80;;;21.00;85.30;;;;;;5075894;28;20449;-73
2021/08/06 07:10:03;;;;;;;3.37;1.60;;;21.00;85.10;;;;;;5075432;28;20452;-73
2021/08/06 07:12:30;;;;;;;4.07;1.43;;;21.10;85.40;;;;;;5076064;28;20480;-74
2021/08/06 07:14:59;;;;;;;3.00;1.30;;;21.10;85.20;;;;;;5075353;28;20465;-74
2021/08/06 07:17:26;;;;;;;3.00;1.70;;;21.10;85.10;;;;;;5075543;28;20471;-74
2021/08/06 07:19:53;;;;;;;2.30;1.10;;;21.20;85.00;;;;;;5075651;28;20452;-74
2021/08/06 07:22:20;;;;;;;5.97;1.83;;;21.30;84.80;;;;;;5075391;28;20459;-74
2021/08/06 07:24:48;;;;;;;2.30;1.40;;;21.50;84.10;;;;;;5075394;28;20468;-74
2021/08/06 07:27:15;;;;;;;3.80;1.37;;;21.70;83.80;;;;;;5075223;28;20449;-75
2021/08/06 07:29:41;;;;;;;2.63;1.33;;;21.80;83.00;;;;;;5075387;28;20926;-74
2021/08/06 07:32:08;;;;;;;6.77;1.57;;;21.80;81.70;;;;;;5075391;28;20487;-74
2021/08/06 07:34:35;;;;;;;1.80;1.27;;;21.90;81.30;;;;;;5075352;28;20467;-75
2021/08/06 07:37:02;;;;;;;1.80;1.33;;;21.90;81.10;;;;;;5075385;28;20429;-74
2021/08/06 07:39:29;;;;;;;1.13;1.00;;;21.90;81.10;;;;;;5075167;28;20451;-75
2021/08/06 07:41:57;;;;;;;1.93;0.80;;;21.80;79.80;;;;;;5075145;28;20444;-75
2021/08/06 07:44:23;;;;;;;1.97;1.20;;;21.60;79.10;;;;;;5074792;28;20469;-75
2021/08/06 07:46:50;;;;;;;2.53;1.10;;;21.40;79.50;;;;;;5075184;28;20456;-75
2021/08/06 07:49:17;;;;;;;1.50;0.97;;;21.20;80.70;;;;;;5074986;28;20527;-74
2021/08/06 07:51:44;;;;;;;0.97;0.90;;;21.00;80.70;;;;;;5074981;28;20452;-75
2021/08/06 07:54:11;;;;;;;0.97;0.97;;;20.90;81.10;;;;;;5074649;28;21012;-74
2021/08/06 07:56:38;;;;;;;2.00;1.57;;;20.80;81.00;;;;;;5075005;28;20471;-73
2021/08/06 07:59:06;;;;;;;1.50;1.37;;;20.70;82.50;;;;;;5075107;28;20445;-73
2021/08/06 08:01:33;;;;;;;1.53;1.20;;;20.60;83.50;;;;;;5074484;28;20963;-73
2021/08/06 08:03:59;;;;;;;1.60;1.20;;;20.70;83.90;;;;;;5074721;28;20436;-72
2021/08/06 08:06:26;;;;;;;1.00;1.00;;;20.60;83.80;;;;;;5074392;28;20935;-72
2021/08/06 08:08:53;;;;;;;1.33;1.23;;;20.60;85.70;;;;;;5074860;28;20445;-72
2021/08/06 08:11:19;;;;;;;2.47;1.40;;;20.60;84.70;;;;;;5074628;28;20452;-72
2021/08/06 08:13:46;;;;;;;1.20;1.10;;;20.60;85.80;;;;;;5074502;28;20835;-72
2021/08/06 08:16:14;;;;;;;1.70;1.40;;;20.60;85.70;;;;;;5074452;28;20472;-71
2021/08/06 08:18:41;;;;;;;2.50;1.47;;;20.70;86.30;;;;;;5074693;28;20449;-71
2021/08/06 08:21:08;;;;;;;4.50;1.43;;;20.70;86.30;;;;;;5073904;28;20444;-71
2021/08/06 08:23:34;;;;;;;4.90;1.83;;;20.60;86.60;;;;;;5074005;28;20836;-71
2021/08/06 08:26:01;;;;;;;2.40;1.93;;;20.60;86.00;;;;;;5074614;28;20468;-72
2021/08/06 08:28:28;;;;;;;3.80;2.47;;;20.50;86.80;;;;;;5074016;28;20930;-72
2021/08/06 08:30:55;;;;;;;3.70;2.00;;;20.50;86.60;;;;;;5074359;28;20445;-72
2021/08/06 08:33:24;;;;;;;2.13;1.20;;;20.60;86.80;;;;;;5074271;28;20483;-73
2021/08/06 08:35:51;;;;;;;1.97;1.30;;;20.60;86.70;;;;;;5074400;28;20518;-73
2021/08/06 08:38:17;;;;;;;1.60;1.50;;;20.70;86.80;;;;;;5074330;28;20437;-73
2021/08/06 08:40:44;;;;;;;1.90;1.70;;;20.80;87.00;;;;;;5074073;28;20444;-73
2021/08/06 08:43:11;;;;;;;4.50;2.57;;;20.90;87.30;;;;;;5073966;28;20444;-73
2021/08/06 08:45:40;;;;;;;3.40;1.93;;;21.00;86.00;;;;;;5073928;28;20465;-73
2021/08/06 08:48:07;;;;;;;2.40;1.77;;;21.10;85.70;;;;;;5074237;28;20451;-73
2021/08/06 08:50:36;;;;;;;9.83;4.87;;;21.20;84.60;;;;;;5073912;28;20853;-73
2021/08/06 08:53:04;;;;;;;2.87;1.73;;;21.20;85.00;;;;;;5073793;28;20838;-73
2021/08/06 08:55:31;;;;;;;4.00;1.57;;;21.20;82.80;;;;;;5073973;28;20827;-73
2021/08/06 08:57:57;;;;;;;3.73;1.97;;;21.30;82.90;;;;;;5073967;28;20444;-73
2021/08/06 09:00:24;;;;;;;3.40;1.97;;;21.40;83.60;;;;;;5073951;28;20440;-73
2021/08/06 09:02:51;;;;;;;1.97;1.87;;;21.50;83.70;;;;;;5073975;28;20448;-73
2021/08/06 09:05:20;;;;;;;6.43;4.50;;;21.60;82.40;;;;;;5073791;28;20476;-74
2021/08/06 09:07:49;;;;;;;4.53;2.57;;;21.60;82.10;;;;;;5073733;28;20517;-74
2021/08/06 09:10:19;;;;;;;5.60;3.20;;;21.70;82.60;;;;;;5073805;28;20429;-74
2021/08/06 09:12:51;;;;;;;3.33;1.90;;;21.80;82.30;;;;;;5073776;28;20491;-74
2021/08/06 09:15:19;;;;;;;4.57;2.10;;;21.90;81.70;;;;;;5073368;28;20978;-74
2021/08/06 09:17:46;;;;;;;3.10;1.80;;;22.00;81.50;;;;;;5073557;28;20445;-74
2021/08/06 09:20:13;;;;;;;3.67;1.93;;;22.10;80.90;;;;;;5074489;28;20451;-74
2021/08/06 09:22:42;;;;;;;10.57;3.87;;;22.30;79.60;;;;;;5076700;28;20479;-74
2021/08/06 09:25:13;;;;;;;7.73;2.90;;;22.40;80.20;;;;;;5080497;28;20506;-75
2021/08/06 09:27:42;;;;;;;1.70;1.47;;;22.70;80.00;;;;;;5075406;28;20523;-75
2021/08/06 09:30:13;;;;;;;3.83;2.03;;;23.00;77.70;;;;;;5074399;28;20432;-75
2021/08/06 09:33:01;;;;;;;2.10;1.70;;;23.30;77.30;;;;;;5074624;28;20834;-75
2021/08/06 09:35:29;;;;;;;4.33;2.83;;;23.70;76.00;;;;;;5072887;28;20518;-75
2021/08/06 09:37:58;;;;;;;4.97;2.20;;;23.90;75.80;;;;;;5077717;28;20437;-75
2021/08/06 09:40:29;;;;;;;6.80;2.10;;;24.10;73.40;;;;;;5077680;28;20432;-75
2021/08/06 09:42:58;;;;;;;3.37;2.37;;;24.40;72.00;;;;;;5077397;28;20891;-75
2021/08/06 09:45:27;;;;;;;2.83;1.87;;;24.70;72.60;;;;;;5077505;28;20472;-75
2021/08/06 09:47:58;;;;;;;2.70;2.10;;;24.90;69.60;;;;;;5077542;28;20444;-75
2021/08/06 09:50:34;;;;;;;2.30;1.80;;;25.10;67.80;;;;;;5077495;28;20425;-75
2021/08/06 09:53:01;;;;;;;6.23;2.13;;;25.10;66.40;;;;;;5077658;28;20468;-75
2021/08/06 09:55:31;;;;;;;3.47;1.70;;;25.20;66.60;;;;;;5076879;28;20476;-75
2021/08/06 09:57:59;;;;;;;4.40;1.80;;;25.40;66.80;;;;;;5078609;28;20428;-75
2021/08/06 10:00:27;;;;;;;3.27;1.60;;;25.50;66.10;;;;;;5076851;28;20891;-75
2021/08/06 10:02:55;;;;;;;2.50;1.83;;;25.70;66.10;;;;;;5077109;28;20448;-75
2021/08/06 10:05:24;;;;;;;4.77;2.07;;;25.90;64.20;;;;;;5078926;28;20464;-75
2021/08/06 10:07:53;;;;;;;2.20;1.70;;;26.10;63.00;;;;;;5078353;28;20443;-74
2021/08/06 10:10:22;;;;;;;4.60;1.93;;;26.40;62.50;;;;;;5077340;28;20498;-73
2021/08/06 10:12:51;;;;;;;5.20;1.90;;;26.80;61.20;;;;;;5079891;28;20476;-74
2021/08/06 10:15:20;;;;;;;6.20;1.60;;;27.10;59.30;;;;;;5076695;28;20491;-74
2021/08/06 10:17:47;;;;;;;2.83;1.70;;;27.40;57.40;;;;;;5076496;28;20440;-74
2021/08/06 10:20:17;;;;;;;3.50;1.70;;;27.20;56.80;;;;;;5076681;28;20456;-73
2021/08/06 10:22:44;;;;;;;4.60;1.57;;;26.60;57.00;;;;;;5076357;28;20459;-71
2021/08/06 10:25:12;;;;;;;2.07;0.90;;;25.70;58.40;;;;;;5076544;28;20479;-70
2021/08/06 10:27:43;;;;;;;3.03;1.37;;;24.90;60.70;;;;;;5076526;28;20448;-72
2021/08/06 10:30:20;;;;;;;1.57;1.07;;;24.20;63.40;;;;;;5077381;28;20431;-73
2021/08/06 10:33:06;;;;;;;3.33;1.13;;;23.70;67.50;;;;;;5076472;28;20458;-73
2021/08/06 10:35:43;;;;;;;3.10;1.27;;;23.40;68.60;;;;;;5076442;28;20500;-73
2021/08/06 10:38:10;;;;;;;5.10;2.00;;;23.00;70.20;;;;;;5076670;28;20456;-73
2021/08/06 10:41:14;;;;;;;4.90;1.50;;;22.80;72.10;;;;;;5076369;28;20444;-74
2021/08/06 10:44:04;;;;;;;3.50;1.37;;;22.60;74.40;;;;;;5076220;28;20431;-74
2021/08/06 10:47:05;;;;;;;4.70;1.80;;;22.70;75.00;;;;;;5076094;28;20523;-74
2021/08/06 10:49:33;;;;;;;2.47;1.80;;;22.80;75.30;;;;;;5014212;28;20904;-74
2021/08/06 10:52:14;;;;;;;2.10;1.60;;;23.00;74.90;;;;;;5062996;28;20463;-75
2021/08/06 10:54:41;;;;;;;5.73;2.10;;;23.00;73.30;;;;;;5075960;28;20488;-75
2021/08/06 10:57:30;;;;;;;6.70;1.80;;;23.00;73.90;;;;;;5076036;28;20444;-75
2021/08/06 10:59:58;;;;;;;4.23;2.03;;;22.90;74.30;;;;;;5076077;28;20432;-75
2021/08/06 11:02:49;;;;;;;4.20;2.43;;;22.70;73.20;;;;;;5075917;28;20472;-75
2021/08/06 11:05:36;;;;;;;3.53;1.80;;;22.80;76.00;;;;;;5076124;28;20453;-75
2021/08/06 11:08:25;;;;;;;3.00;1.80;;;22.80;74.10;;;;;;5075943;28;20424;-75
2021/08/06 11:10:53;;;;;;;3.40;1.80;;;22.90;76.00;;;;;;5075401;28;20476;-75
2021/08/06 11:13:50;;;;;;;2.60;1.60;;;23.90;71.30;;;;;;5075708;28;20503;-75
2021/08/06 11:16:16;;;;;;;4.60;2.70;;;25.30;67.10;;;;;;5075766;28;20472;-75
2021/08/06 11:18:45;;;;;;;3.73;1.53;;;26.10;61.00;;;;;;5075674;28;20445;-75
2021/08/06 11:21:12;;;;;;;3.67;1.87;;;27.10;61.20;;;;;;5075549;28;20453;-75
2021/08/06 11:23:39;;;;;;;5.13;1.00;;;27.80;57.40;;;;;;5075398;28;20452;-74
2021/08/06 11:26:07;;;;;;;2.00;1.20;;;28.00;55.10;;;;;;5075448;28;20464;-73
2021/08/06 11:28:34;;;;;;;2.00;1.60;;;27.70;54.90;;;;;;5075631;28;20494;-74
2021/08/06 11:31:01;;;;;;;5.00;1.70;;;27.30;56.30;;;;;;5075730;28;20451;-73
2021/08/06 11:33:28;;;;;;;5.07;1.60;;;27.20;56.00;;;;;;5075344;28;20765;-75
2021/08/06 11:35:56;;;;;;;1.90;1.07;;;27.40;53.90;;;;;;5079387;28;20491;-75
2021/08/06 11:38:24;;;;;;;2.97;1.40;;;27.30;54.10;;;;;;5078819;28;20498;-75
2021/08/06 11:40:55;;;;;;;1.53;1.20;;;27.20;55.20;;;;;;5075640;28;20547;-76
2021/08/06 11:43:24;;;;;;;1.67;0.97;;;27.60;54.00;;;;;;5075265;28;20424;-75
2021/08/06 11:45:53;;;;;;;2.20;1.30;;;28.10;51.60;;;;;;5074802;28;20978;-75
2021/08/06 11:48:19;;;;;;;1.77;1.17;;;28.10;50.30;;;;;;5075243;28;20449;-74
2021/08/06 11:50:50;;;;;;;4.20;1.00;;;28.30;49.90;;;;;;5075041;28;20441;-75
2021/08/06 11:53:20;;;;;;;2.80;1.00;;;28.30;48.30;;;;;;5074957;28;20823;-75
2021/08/06 11:55:48;;;;;;;2.10;1.03;;;28.30;48.30;;;;;;5074909;28;20469;-75
2021/08/06 11:58:15;;;;;;;1.00;0.93;;;28.70;49.40;;;;;;5074902;28;20440;-75
2021/08/06 12:00:44;;;;;;;3.70;0.90;;;29.60;47.70;;;;;;5074771;28;20949;-75
2021/08/06 12:03:12;;;;;;;1.53;1.43;;;30.50;45.90;;;;;;5074754;28;20506;-75
2021/08/06 12:05:41;;;;;;;1.87;1.10;;;31.30;42.70;;;;;;5074657;28;20503;-75
2021/08/06 12:08:27;;;;;;;3.50;1.50;;;31.80;41.70;;;;;;5074748;28;20441;-75
2021/08/06 12:10:57;;;;;;;1.80;1.07;;;31.30;42.80;;;;;;5074344;28;20858;-75
2021/08/06 12:13:25;;;;;;;3.17;1.27;;;30.70;44.00;;;;;;5074551;28;20448;-75
2021/08/06 12:16:05;;;;;;;2.03;1.20;;;30.60;45.70;;;;;;5074305;28;20982;-75
2021/08/06 12:18:31;;;;;;;4.10;1.67;;;30.30;44.20;;;;;;5074487;28;20494;-75
2021/08/06 12:21:00;;;;;;;2.90;1.20;;;29.70;44.60;;;;;;5074422;28;20564;-75
2021/08/06 12:23:28;;;;;;;1.23;1.03;;;29.10;45.30;;;;;;5074050;28;20506;-75
2021/08/06 12:26:14;;;;;;;2.23;1.30;;;28.70;45.40;;;;;;5074361;28;20468;-75
2021/08/06 12:28:42;;;;;;;2.47;1.03;;;28.10;47.60;;;;;;5074308;28;20432;-75
2021/08/06 12:31:15;;;;;;;1.10;1.00;;;28.00;47.70;;;;;;5074288;28;20440;-74
2021/08/06 12:33:44;;;;;;;2.10;0.97;;;28.40;47.20;;;;;;5075002;28;20465;-75
2021/08/06 12:36:16;;;;;;;4.90;1.10;;;29.20;45.30;;;;;;5074078;28;20473;-75
2021/08/06 12:38:44;;;;;;;3.97;1.57;;;30.30;42.40;;;;;;5074066;28;20464;-75
2021/08/06 12:41:25;;;;;;;1.97;1.40;;;31.10;41.70;;;;;;5073871;28;20938;-75
2021/08/06 12:44:13;;;;;;;3.50;1.47;;;32.40;38.90;;;;;;5074009;28;20424;-74
2021/08/06 12:46:40;;;;;;;2.03;1.10;;;32.70;35.30;;;;;;5074032;28;20787;-74
2021/08/06 12:49:09;;;;;;;3.57;1.70;;;32.90;35.20;;;;;;5073644;28;20842;-74
2021/08/06 12:51:38;;;;;;;8.37;1.80;;;33.20;35.10;;;;;;5073917;28;20523;-74
2021/08/06 12:54:26;;;;;;;4.07;1.80;;;33.50;35.40;;;;;;5073393;28;20475;-74
2021/08/06 12:56:54;;;;;;;6.47;1.70;;;33.40;34.60;;;;;;5073520;28;20450;-74